Time;durP1;ratioP1;P1;durP2;ratioP2;P2;SDS_P1;SDS_P2;PMS_P1;PMS_P2;Temp;Humidity;BMP_temperature;BMP_pressure;BME280_temperature;BME280_humidity;BME280_pressure;Samples;Min_cycle;Max_cycle;Signal;HPM_P1;HPM_P2
2022/04/16 00:00:17;;;;;;;0.68;0.68;;;;;;;10.88;59.06;102368.78;5252144;28;20037;-79
2022/04/16 00:02:47;;;;;;;0.90;0.90;;;;;;;11.08;58.33;102357.34;5236275;28;20135;-79
2022/04/16 00:05:18;;;;;;;1.38;1.30;;;;;;;10.92;59.43;102359.13;5231537;28;20144;-79
2022/04/16 00:08:06;;;;;;;1.23;1.23;;;;;;;11.03;58.29;102360.84;5237528;28;20033;-79
2022/04/16 00:10:39;;;;;;;1.38;1.35;;;;;;;11.09;58.21;102362.59;5230749;28;20056;-79
2022/04/16 00:13:10;;;;;;;0.73;0.73;;;;;;;11.09;58.31;102359.97;5219353;28;20041;-79
2022/04/16 00:15:40;;;;;;;1.17;1.10;;;;;;;10.94;59.01;102350.41;5236388;28;20566;-79
2022/04/16 00:18:11;;;;;;;9.50;2.35;;;;;;;11.06;58.52;102345.97;5236992;28;20737;-78
2022/04/16 00:20:42;;;;;;;0.82;0.82;;;;;;;10.88;60.14;102349.53;5231228;28;20067;-78
2022/04/16 00:23:13;;;;;;;0.95;0.95;;;;;;;10.90;58.69;102347.78;5235545;28;20041;-78
2022/04/16 00:25:43;;;;;;;1.35;1.25;;;;;;;10.94;58.78;102353.03;5235646;28;20078;-79
2022/04/16 00:28:15;;;;;;;1.45;1.35;;;;;;;11.05;58.57;102354.72;5235354;28;20060;-79
2022/04/16 00:30:45;;;;;;;0.60;0.60;;;;;;;10.78;60.47;102354.78;5234438;28;20301;-79
2022/04/16 00:33:18;;;;;;;2.10;1.92;;;;;;;10.90;58.96;102358.28;5200952;28;20062;-79
2022/04/16 00:35:49;;;;;;;2.00;1.90;;;;;;;10.91;59.19;102360.03;5223885;28;20064;-79
2022/04/16 00:38:19;;;;;;;1.40;1.23;;;;;;;10.88;59.16;102357.41;5211912;28;20056;-78
2022/04/16 00:40:52;;;;;;;1.23;1.23;;;;;;;10.89;59.10;102356.53;5216040;28;20032;-78
2022/04/16 00:43:24;;;;;;;1.33;1.33;;;;;;;10.81;59.15;102351.28;5218040;28;20496;-78
2022/04/16 00:45:56;;;;;;;2.28;2.13;;;;;;;10.87;59.69;102343.38;5232354;28;20036;-79
2022/04/16 00:48:27;;;;;;;1.55;1.45;;;;;;;10.83;59.39;102353.03;5212750;28;20087;-78
2022/04/16 00:50:57;;;;;;;1.83;1.73;;;;;;;10.87;58.54;102348.63;5234533;28;20044;-79
2022/04/16 00:53:28;;;;;;;0.88;0.88;;;;;;;10.90;58.26;102343.38;5235727;28;20059;-78
2022/04/16 00:55:58;;;;;;;0.88;0.88;;;;;;;10.85;58.29;102346.03;5215946;28;20052;-78
2022/04/16 00:58:29;;;;;;;1.38;1.25;;;;;;;10.88;58.32;102339.88;5213943;28;20029;-78
2022/04/16 01:00:59;;;;;;;0.95;0.95;;;;;;;10.86;58.17;102346.91;5227817;28;20032;-78
2022/04/16 01:03:30;;;;;;;1.80;1.70;;;;;;;10.86;58.05;102344.28;5234568;28;20043;-78
2022/04/16 01:06:01;;;;;;;1.13;1.10;;;;;;;10.84;58.01;102354.78;5234128;28;20044;-79
2022/04/16 01:08:31;;;;;;;0.80;0.80;;;;;;;10.83;57.86;102352.16;5219660;28;20036;-78
2022/04/16 01:11:02;;;;;;;0.80;0.80;;;;;;;10.83;58.00;102357.41;5215790;28;20337;-78
2022/04/16 01:13:32;;;;;;;4.15;2.20;;;;;;;10.83;58.23;102362.66;5240953;28;20029;-79
2022/04/16 01:16:05;;;;;;;1.70;1.60;;;;;;;10.80;58.26;102357.41;5212778;28;20551;-78
2022/04/16 01:18:45;;;;;;;2.53;2.08;;;;;;;10.77;57.83;102358.28;5205293;28;20031;-79
2022/04/16 01:21:29;;;;;;;1.52;1.15;;;;;;;10.80;58.26;102362.66;5232929;28;20036;-78
2022/04/16 01:23:59;;;;;;;0.85;0.85;;;;;;;10.80;58.17;102367.91;5233652;28;20051;-78
2022/04/16 01:26:30;;;;;;;1.08;1.05;;;;;;;10.78;57.92;102364.44;5234221;28;20512;-78
2022/04/16 01:29:01;;;;;;;0.80;0.80;;;;;;;10.76;57.87;102366.19;5232438;28;20036;-78
2022/04/16 01:31:31;;;;;;;1.33;1.25;;;;;;;10.75;58.03;102369.69;5227291;28;20087;-78
2022/04/16 01:34:03;;;;;;;0.80;0.80;;;;;;;10.74;57.86;102365.31;5214294;28;20032;-78
2022/04/16 01:36:34;;;;;;;2.00;1.90;;;;;;;10.76;58.14;102374.06;5250792;28;20041;-78
2022/04/16 01:39:06;;;;;;;0.68;0.68;;;;;;;10.77;58.04;102373.19;5212312;28;20581;-78
2022/04/16 01:41:36;;;;;;;1.10;1.05;;;;;;;10.63;58.55;102375.81;5234378;28;20165;-78
2022/04/16 01:44:07;;;;;;;1.05;1.05;;;;;;;10.63;58.34;102378.44;5234338;28;20066;-78
2022/04/16 01:46:37;;;;;;;1.65;1.55;;;;;;;10.64;58.24;102378.44;5217353;28;20053;-78
2022/04/16 01:49:10;;;;;;;1.40;1.33;;;;;;;10.62;58.48;102374.06;5232592;28;20036;-78
2022/04/16 01:51:40;;;;;;;0.85;0.85;;;;;;;10.62;58.53;102374.94;5233932;28;20040;-78
2022/04/16 01:54:10;;;;;;;0.68;0.68;;;;;;;10.61;58.18;102378.47;5217838;28;20587;-79
2022/04/16 01:56:41;;;;;;;1.45;1.35;;;;;;;10.64;58.14;102367.94;5217878;28;20025;-79
2022/04/16 01:59:11;;;;;;;1.42;1.33;;;;;;;10.55;58.66;102374.06;5196800;28;20027;-79
2022/04/16 02:01:42;;;;;;;0.50;0.50;;;;;;;10.57;58.30;102381.09;5215483;28;20021;-78
2022/04/16 02:04:12;;;;;;;0.60;0.60;;;;;;;10.53;58.13;102380.22;5234306;28;20020;-79
2022/04/16 02:06:43;;;;;;;0.95;0.95;;;;;;;10.53;58.42;102372.34;5218458;28;20080;-79
2022/04/16 02:09:13;;;;;;;1.80;1.70;;;;;;;10.45;58.61;102381.97;5210006;28;20094;-78
2022/04/16 02:11:44;;;;;;;2.15;1.95;;;;;;;10.47;58.39;102388.06;5232872;28;20082;-78
2022/04/16 02:14:14;;;;;;;1.08;1.08;;;;;;;10.43;58.76;102383.69;5229313;28;20123;-79
2022/04/16 02:16:45;;;;;;;2.47;2.28;;;;;;;10.37;58.82;102389.81;5228559;28;20032;-79
2022/04/16 02:19:16;;;;;;;1.35;1.25;;;;;;;10.38;59.13;102396.81;5217314;28;20036;-78
2022/04/16 02:21:47;;;;;;;1.90;1.80;;;;;;;10.34;60.25;102401.16;5216969;28;20128;-78
2022/04/16 02:24:18;;;;;;;1.48;1.08;;;;;;;10.30;59.14;102395.91;5231283;28;20045;-78
2022/04/16 02:26:48;;;;;;;1.35;1.25;;;;;;;10.28;59.12;102395.91;5233611;28;20107;-78
2022/04/16 02:29:19;;;;;;;1.20;0.98;;;;;;;10.29;58.57;102397.63;5212323;28;20048;-78
2022/04/16 02:31:49;;;;;;;0.52;0.52;;;;;;;10.26;58.91;102397.66;5200389;28;20033;-79
2022/04/16 02:34:20;;;;;;;1.10;0.95;;;;;;;10.24;59.13;102395.03;5238234;28;20098;-79
2022/04/16 02:36:51;;;;;;;2.75;2.55;;;;;;;10.23;59.07;102400.25;5237535;28;20549;-78
2022/04/16 02:39:21;;;;;;;1.25;1.17;;;;;;;10.24;59.32;102409.88;5234137;28;20091;-78
2022/04/16 02:41:52;;;;;;;1.50;1.40;;;;;;;10.13;58.96;102408.97;5220487;28;20036;-78
2022/04/16 02:47:12;;;;;;;1.23;1.08;;;;;;;10.17;58.42;102416.00;5237835;28;20114;-78
2022/04/16 02:49:43;;;;;;;1.38;1.33;;;;;;;10.16;58.73;102414.25;5237598;28;20675;-79
2022/04/16 02:52:14;;;;;;;5.38;0.82;;;;;;;10.13;58.93;102422.09;5219097;28;20041;-79
2022/04/16 02:54:44;;;;;;;1.27;1.17;;;;;;;9.83;60.93;102418.53;5239766;28;20037;-78
2022/04/16 02:57:15;;;;;;;1.15;1.05;;;;;;;9.99;59.11;102420.31;5220004;28;20455;-78
2022/04/16 02:59:48;;;;;;;3.97;1.67;;;;;;;9.89;59.43;102418.53;5237652;28;20047;-79
2022/04/16 03:02:19;;;;;;;3.58;2.10;;;;;;;9.95;59.11;102415.97;5237260;28;20694;-79
2022/04/16 03:04:50;;;;;;;1.77;1.48;;;;;;;9.94;59.83;102422.06;5217970;28;20127;-78
2022/04/16 03:07:20;;;;;;;2.42;2.22;;;;;;;9.80;59.55;102419.41;5220338;28;20680;-78
2022/04/16 03:09:51;;;;;;;1.90;1.80;;;;;;;9.83;59.33;102423.78;5234870;28;20055;-78
2022/04/16 03:12:21;;;;;;;0.80;0.80;;;;;;;9.83;58.89;102423.78;5242144;28;20055;-78
2022/04/16 03:17:40;;;;;;;0.70;0.70;;;;;;;9.86;59.32;102422.03;5239251;28;20408;-78
2022/04/16 03:20:12;;;;;;;1.80;1.70;;;;;;;9.86;59.49;102426.41;5221441;28;20040;-78
2022/04/16 03:22:43;;;;;;;1.02;1.02;;;;;;;9.80;59.71;102429.00;5217755;28;20045;-78
2022/04/16 03:25:13;;;;;;;2.47;2.25;;;;;;;9.79;59.26;102427.28;5231659;28;20054;-79
2022/04/16 03:27:45;;;;;;;1.15;1.15;;;;;;;9.73;59.65;102433.34;5243034;28;20054;-78
2022/04/16 03:30:15;;;;;;;1.17;1.08;;;;;;;9.77;59.60;102430.75;5248939;28;20064;-78
2022/04/16 03:32:50;;;;;;;1.90;1.80;;;;;;;9.70;59.48;102429.00;5251006;28;20052;-78
2022/04/16 03:35:22;;;;;;;0.40;0.40;;;;;;;9.70;59.29;102434.22;5247861;28;20036;-78
2022/04/16 03:37:54;;;;;;;15.83;1.13;;;;;;;9.67;59.65;102431.59;5247676;28;20039;-78
2022/04/16 03:40:26;;;;;;;0.57;0.57;;;;;;;9.69;59.35;102418.47;5201702;28;20290;-78
2022/04/16 03:43:01;;;;;;;1.67;1.55;;;;;;;9.58;60.13;102432.44;5241509;28;20047;-79
2022/04/16 03:45:33;;;;;;;1.33;1.30;;;;;;;9.51;60.11;102428.00;5234950;28;20037;-78
2022/04/16 03:48:06;;;;;;;1.92;1.00;;;;;;;9.55;59.00;102435.03;5195651;28;20706;-78
2022/04/16 03:50:36;;;;;;;1.73;1.63;;;;;;;9.57;58.79;102427.16;5234983;28;20520;-78
2022/04/16 03:53:07;;;;;;;1.60;1.52;;;;;;;9.53;59.03;102430.66;5233249;28;20068;-78
2022/04/16 04:01:15;;;;;;;0.73;0.73;;;;;;;9.45;60.38;102436.72;5216721;28;20037;-78
2022/04/16 04:03:46;;;;;;;0.82;0.82;;;;;;;9.44;59.17;102437.59;5258041;28;20454;-78
2022/04/16 04:06:17;;;;;;;2.85;2.58;;;;;;;9.40;59.48;102438.44;5233416;28;20040;-78
2022/04/16 04:08:50;;;;;;;1.65;1.55;;;;;;;9.40;59.60;102440.19;5252299;28;20040;-78
2022/04/16 04:11:21;;;;;;;;;;;;;;;9.41;59.99;102440.19;5248346;28;20447;-78
2022/04/16 04:13:51;;;;;;;1.10;1.10;;;;;;;9.38;59.64;102445.41;5239867;28;19915;-78
2022/04/16 04:16:22;;;;;;;1.35;1.25;;;;;;;9.36;59.51;102444.53;5236108;28;20040;-78
2022/04/16 04:18:53;;;;;;;0.60;0.60;;;;;;;9.36;60.01;102446.25;5223372;28;20016;-78
2022/04/16 04:21:23;;;;;;;3.47;2.05;;;;;;;9.25;60.08;102438.34;5254358;28;20096;-78
2022/04/16 04:23:54;;;;;;;1.27;1.17;;;;;;;9.26;60.05;102454.06;5257445;28;20032;-78
2022/04/16 04:26:25;;;;;;;1.50;1.42;;;;;;;9.26;59.90;102453.19;5236325;28;20029;-78
2022/04/16 04:28:56;;;;;;;0.82;0.82;;;;;;;9.23;59.96;102454.06;5235399;28;20660;-78
2022/04/16 04:31:27;;;;;;;0.85;0.85;;;;;;;9.25;59.58;102456.69;5259214;28;20032;-79
2022/04/16 04:33:57;;;;;;;3.42;2.08;;;;;;;9.21;59.64;102453.19;5241266;28;20081;-78
2022/04/16 04:36:30;;;;;;;1.13;1.13;;;;;;;9.21;60.05;102455.78;5254060;28;20119;-78
2022/04/16 04:39:01;;;;;;;1.42;1.33;;;;;;;9.19;59.69;102462.75;5235277;28;20028;-78
2022/04/16 04:41:32;;;;;;;1.10;1.10;;;;;;;9.18;59.99;102455.75;5249812;28;20047;-78
2022/04/16 04:44:02;;;;;;;1.23;1.20;;;;;;;9.23;60.51;102458.41;5239902;28;20024;-78
2022/04/16 04:46:33;;;;;;;2.65;2.33;;;;;;;9.18;60.07;102465.38;5231303;28;20035;-78
2022/04/16 04:49:03;;;;;;;3.15;1.08;;;;;;;9.18;60.04;102470.63;5237710;28;20683;-78
2022/04/16 04:51:35;;;;;;;2.00;1.63;;;;;;;9.15;60.25;102471.47;5234934;28;20554;-78
2022/04/16 04:54:07;;;;;;;0.65;0.65;;;;;;;9.12;59.92;102477.56;5254805;28;20511;-79
2022/04/16 04:56:38;;;;;;;1.65;1.55;;;;;;;9.09;60.28;102479.28;5255410;28;20036;-78
2022/04/16 04:59:08;;;;;;;1.20;1.13;;;;;;;9.08;60.01;102481.00;5248836;28;20526;-79
2022/04/16 05:01:39;;;;;;;0.60;0.60;;;;;;;8.96;60.25;102487.03;5254131;28;20051;-78
2022/04/16 05:04:09;;;;;;;1.20;1.20;;;;;;;8.98;60.24;102489.66;5236298;28;20036;-78
2022/04/16 05:06:43;;;;;;;1.08;1.08;;;;;;;9.04;60.61;102491.44;5216734;28;20036;-79
2022/04/16 05:09:13;;;;;;;;;;;;;;;8.99;59.92;102494.03;5258391;28;20040;-79
2022/04/16 05:11:43;;;;;;;1.08;1.05;;;;;;;9.01;59.97;102500.16;5252052;28;20296;-78
2022/04/16 05:14:15;;;;;;;1.92;1.83;;;;;;;8.96;60.39;102499.25;5217649;28;20028;-77
2022/04/16 05:16:46;;;;;;;0.75;0.75;;;;;;;9.02;60.75;102506.28;5250412;28;20085;-77
2022/04/16 05:19:16;;;;;;;1.42;0.68;;;;;;;8.98;60.28;102505.38;5253066;28;20035;-77
2022/04/16 05:21:47;;;;;;;1.00;1.00;;;;;;;8.96;60.61;102510.59;5254376;28;20528;-75
2022/04/16 05:24:17;;;;;;;2.00;1.90;;;;;;;8.94;60.54;102508.84;5234716;28;20048;-76
2022/04/16 05:26:51;;;;;;;1.33;1.25;;;;;;;8.96;60.73;102512.34;5248266;28;20551;-76
2022/04/16 05:29:21;;;;;;;2.88;2.03;;;;;;;8.92;60.03;102511.47;5233996;28;20036;-77
2022/04/16 05:31:52;;;;;;;0.70;0.70;;;;;;;8.91;60.46;102511.41;5234548;28;20050;-77
2022/04/16 05:34:22;;;;;;;1.55;1.45;;;;;;;8.92;60.85;102514.06;5236769;28;20435;-77
2022/04/16 05:36:53;;;;;;;2.42;2.33;;;;;;;8.90;60.34;102528.00;5254561;28;20036;-77
2022/04/16 05:39:23;;;;;;;1.98;1.88;;;;;;;8.93;60.59;102528.88;5236525;28;20032;-77
2022/04/16 05:41:54;;;;;;;1.63;1.52;;;;;;;8.90;60.54;102525.38;5237552;28;20044;-77
2022/04/16 05:44:24;;;;;;;1.85;1.75;;;;;;;8.89;60.66;102528.84;5254822;28;20039;-77
2022/04/16 05:46:57;;;;;;;0.80;0.80;;;;;;;8.91;60.81;102534.97;5220448;28;20042;-77
2022/04/16 05:49:28;;;;;;;1.05;1.05;;;;;;;8.89;60.52;102529.75;5253717;28;20540;-76
2022/04/16 05:51:59;;;;;;;1.05;1.02;;;;;;;8.94;61.16;102529.78;5237202;28;20048;-76
2022/04/16 05:54:30;;;;;;;1.02;1.02;;;;;;;8.86;62.18;102536.69;5236820;28;20752;-76
2022/04/16 05:57:04;;;;;;;2.00;1.90;;;;;;;8.76;61.89;102539.22;5235747;28;20041;-77
2022/04/16 05:59:35;;;;;;;7.53;2.42;;;;;;;8.85;61.32;102546.25;5231259;28;20049;-77
2022/04/16 06:02:06;;;;;;;2.30;1.75;;;;;;;8.85;61.36;102541.03;5216898;28;20040;-77
2022/04/16 06:04:36;;;;;;;1.23;1.15;;;;;;;8.88;61.15;102545.44;5248931;28;20079;-77
2022/04/16 06:07:07;;;;;;;1.88;1.77;;;;;;;8.84;61.27;102544.53;5247805;28;20073;-77
2022/04/16 06:09:37;;;;;;;1.77;1.67;;;;;;;8.85;62.49;102550.63;5215294;28;20047;-78
2022/04/16 06:12:09;;;;;;;1.48;1.38;;;;;;;8.64;65.56;102542.59;5252606;28;20040;-78
2022/04/16 06:14:43;;;;;;;3.03;2.75;;;;;;;8.50;68.00;102545.06;5256382;28;20028;-78
2022/04/16 06:17:13;;;;;;;0.90;0.90;;;;;;;8.50;67.58;102559.91;5257521;28;20032;-78
2022/04/16 06:19:43;;;;;;;0.80;0.80;;;;;;;8.50;67.64;102563.38;5249345;28;20106;-78
2022/04/16 06:22:14;;;;;;;2.53;2.33;;;;;;;8.38;71.85;102559.69;5242329;28;20509;-78
2022/04/16 06:24:45;;;;;;;1.60;1.50;;;;;;;8.66;66.25;102560.91;5251745;28;20519;-78
2022/04/16 06:27:15;;;;;;;1.80;1.67;;;;;;;8.74;67.65;102563.63;5251351;28;20089;-77
2022/04/16 06:29:45;;;;;;;1.73;1.63;;;;;;;8.75;66.97;102570.63;5249098;28;20581;-76
2022/04/16 06:32:16;;;;;;;1.75;1.63;;;;;;;8.77;67.44;102563.63;5267024;28;20070;-78
2022/04/16 06:34:46;;;;;;;1.20;1.20;;;;;;;8.83;68.58;102558.50;5245409;28;20039;-78
2022/04/16 06:37:17;;;;;;;1.33;1.25;;;;;;;8.95;67.03;102560.34;5239167;28;20035;-77
2022/04/16 06:39:47;;;;;;;1.08;1.08;;;;;;;8.95;65.44;102562.97;5255117;28;20040;-78
2022/04/16 06:42:18;;;;;;;1.48;1.35;;;;;;;8.85;71.04;102561.09;5257766;28;20438;-78
2022/04/16 06:44:51;;;;;;;3.15;2.95;;;;;;;8.89;72.14;102557.66;5239164;28;20042;-78
2022/04/16 06:47:21;;;;;;;1.50;1.40;;;;;;;8.92;69.79;102563.81;5242196;28;20484;-78
2022/04/16 06:49:55;;;;;;;1.80;1.70;;;;;;;9.06;70.08;102568.28;5249628;28;20518;-79
2022/04/16 06:52:25;;;;;;;1.35;1.25;;;;;;;9.09;69.79;102570.94;5258221;28;20549;-78
2022/04/16 06:54:59;;;;;;;3.72;3.08;;;;;;;9.28;68.61;102566.72;5239520;28;20058;-77
2022/04/16 06:57:29;;;;;;;2.45;1.83;;;;;;;9.19;70.86;102562.28;5256942;28;20433;-77
2022/04/16 07:00:00;;;;;;;1.80;1.70;;;;;;;9.28;68.58;102567.59;5237707;28;20122;-79
2022/04/16 07:02:30;;;;;;;1.90;1.70;;;;;;;9.19;71.62;102566.66;5236468;28;20032;-77
2022/04/16 07:05:02;;;;;;;1.20;1.13;;;;;;;9.27;69.96;102571.06;5258071;28;20040;-77
2022/04/16 07:07:32;;;;;;;1.65;1.55;;;;;;;9.38;70.38;102572.91;5256390;28;20028;-77
2022/04/16 07:10:03;;;;;;;3.03;2.83;;;;;;;9.41;70.76;102568.56;5254403;28;20094;-77
2022/04/16 07:12:34;;;;;;;1.08;1.08;;;;;;;9.49;69.63;102575.59;5222942;28;20074;-77
2022/04/16 07:15:05;;;;;;;1.83;1.65;;;;;;;9.51;70.66;102568.63;5255941;28;20639;-77
2022/04/16 07:17:36;;;;;;;1.63;1.50;;;;;;;9.66;68.19;102567.88;5237977;28;20286;-77
2022/04/16 07:20:07;;;;;;;0.88;0.88;;;;;;;9.80;68.66;102562.69;5251497;28;20492;-77
2022/04/16 07:22:37;;;;;;;0.60;0.60;;;;;;;9.71;69.67;102567.00;5222926;28;20039;-78
2022/04/16 07:25:08;;;;;;;1.08;1.08;;;;;;;9.69;69.31;102573.13;5256241;28;20507;-77
2022/04/16 07:27:41;;;;;;;2.72;2.15;;;;;;;9.74;68.69;102567.03;5253854;28;20059;-77
2022/04/16 07:30:13;;;;;;;1.92;1.83;;;;;;;9.91;68.63;102567.16;5251561;28;20089;-77
2022/04/16 07:32:43;;;;;;;1.25;1.25;;;;;;;9.99;69.47;102561.06;5253204;28;20066;-77
2022/04/16 07:35:14;;;;;;;1.83;1.73;;;;;;;9.88;69.95;102574.09;5254237;28;20119;-77
2022/04/16 07:37:46;;;;;;;1.20;1.17;;;;;;;9.94;68.65;102571.53;5238658;28;20281;-77
2022/04/16 07:40:16;;;;;;;1.83;1.73;;;;;;;10.02;67.64;102571.56;5234993;28;20479;-77
2022/04/16 07:42:47;;;;;;;1.30;1.20;;;;;;;10.18;68.99;102567.28;5253814;28;20262;-77
2022/04/16 07:45:17;;;;;;;2.25;1.95;;;;;;;10.15;69.56;102562.88;5247057;28;20777;-78
2022/04/16 07:47:50;;;;;;;7.10;2.30;;;;;;;10.23;68.75;102565.53;5234564;28;20330;-78
2022/04/16 07:50:21;;;;;;;1.80;1.70;;;;;;;10.24;68.23;102565.56;5236764;28;20118;-78
2022/04/16 07:52:51;;;;;;;1.05;1.00;;;;;;;10.39;68.03;102554.25;5253517;28;20036;-78
2022/04/16 07:55:22;;;;;;;0.80;0.80;;;;;;;10.41;67.36;102564.78;5250671;28;20335;-77
2022/04/16 07:57:52;;;;;;;2.00;1.20;;;;;;;10.50;66.95;102558.66;5254867;28;20038;-78
2022/04/16 08:00:23;;;;;;;1.10;1.10;;;;;;;10.38;67.63;102560.38;5253907;28;20040;-78
2022/04/16 08:02:53;;;;;;;2.13;2.03;;;;;;;10.51;67.28;102566.53;5252390;28;20075;-79
2022/04/16 08:05:24;;;;;;;1.67;1.58;;;;;;;10.58;66.86;102567.44;5274512;28;20099;-78
2022/04/16 08:07:55;;;;;;;1.67;1.58;;;;;;;10.60;66.92;102565.69;5237518;28;20044;-79
2022/04/16 08:10:25;;;;;;;1.80;1.70;;;;;;;10.62;67.26;102561.31;5222765;28;20028;-78
2022/04/16 08:12:56;;;;;;;1.58;1.48;;;;;;;10.70;67.05;102559.56;5236916;28;20044;-78
2022/04/16 08:15:26;;;;;;;1.20;1.10;;;;;;;10.83;66.32;102557.84;5256655;28;20028;-78
2022/04/16 08:17:57;;;;;;;0.75;0.75;;;;;;;10.77;65.92;102557.84;5245256;28;20051;-78
2022/04/16 08:20:27;;;;;;;2.03;1.63;;;;;;;10.79;66.85;102561.34;5267194;28;20036;-78
2022/04/16 08:23:04;;;;;;;1.10;1.10;;;;;;;10.84;66.82;102556.97;5248194;28;20079;-78
2022/04/16 08:28:07;;;;;;;2.15;1.70;;;;;;;10.95;66.72;102567.47;5236967;28;20040;-78
2022/04/16 08:30:38;;;;;;;1.33;1.33;;;;;;;10.89;66.47;102564.84;5222591;28;20062;-78
2022/04/16 08:33:14;;;;;;;2.45;1.52;;;;;;;10.95;66.70;102564.84;5218186;28;20045;-78
2022/04/16 08:35:45;;;;;;;0.95;0.95;;;;;;;10.98;66.03;102562.25;5239299;28;20039;-78
2022/04/16 08:38:16;;;;;;;1.75;1.63;;;;;;;11.03;65.88;102560.47;5233083;28;20659;-79
2022/04/16 08:40:47;;;;;;;0.80;0.80;;;;;;;11.12;64.92;102559.63;5245193;28;20039;-78
2022/04/16 08:43:18;;;;;;;0.93;0.93;;;;;;;11.30;64.36;102558.72;5232830;28;20475;-79
2022/04/16 08:45:55;;;;;;;3.22;2.75;;;;;;;11.33;64.00;102564.00;5236975;28;20407;-78
2022/04/16 08:48:26;;;;;;;2.08;1.73;;;;;;;11.42;63.66;102562.25;5231428;28;20033;-77
2022/04/16 08:50:57;;;;;;;0.88;0.88;;;;;;;11.31;63.46;102565.75;5236271;28;20047;-77
2022/04/16 08:53:28;;;;;;;3.05;1.75;;;;;;;11.34;64.09;102568.38;5251558;28;20085;-77
2022/04/16 08:56:02;;;;;;;11.05;3.05;;;;;;;11.42;63.75;102562.25;5238892;28;20343;-78
2022/04/16 08:58:39;;;;;;;0.95;0.88;;;;;;;11.39;63.35;102576.25;5239437;28;20088;-78
2022/04/16 09:01:09;;;;;;;1.50;1.40;;;;;;;11.58;62.93;102581.47;5258083;28;20050;-78
2022/04/16 09:03:40;;;;;;;2.55;1.88;;;;;;;11.48;62.42;102583.25;5238933;28;20491;-77
2022/04/16 09:06:22;;;;;;;1.05;1.05;;;;;;;11.55;61.57;102581.50;5249794;28;20362;-77
2022/04/16 09:08:52;;;;;;;1.65;1.25;;;;;;;11.56;60.02;102584.13;5258211;28;20058;-78
2022/04/16 09:11:26;;;;;;;1.45;1.35;;;;;;;11.66;60.22;102582.34;5252198;28;20392;-78
2022/04/16 09:13:57;;;;;;;1.05;0.73;;;;;;;11.81;60.26;102581.44;5250930;28;20044;-78
2022/04/16 09:16:27;;;;;;;0.93;0.80;;;;;;;11.67;60.81;102567.47;5238288;28;20511;-78
2022/04/16 09:18:58;;;;;;;0.73;0.73;;;;;;;11.72;60.12;102586.72;5238122;28;20512;-77
2022/04/16 09:21:29;;;;;;;0.50;0.50;;;;;;;11.78;60.01;102581.44;5231927;28;20089;-77
2022/04/16 09:24:01;;;;;;;0.43;0.43;;;;;;;11.89;58.66;102591.97;5233805;28;20104;-77
2022/04/16 09:26:33;;;;;;;0.82;0.82;;;;;;;11.91;58.46;102582.28;5233153;28;20146;-78
2022/04/16 09:29:14;;;;;;;0.70;0.70;;;;;;;11.96;56.55;102585.78;5229320;28;20684;-78
2022/04/16 09:31:48;;;;;;;0.90;0.80;;;;;;;12.10;55.25;102586.66;5238583;28;20029;-78
2022/04/16 09:34:22;;;;;;;0.60;0.60;;;;;;;12.00;57.39;102591.94;5244937;28;20047;-78
2022/04/16 09:36:54;;;;;;;0.65;0.65;;;;;;;12.09;56.37;102581.41;5266726;28;20031;-79
2022/04/16 09:39:26;;;;;;;0.75;0.75;;;;;;;12.19;56.88;102583.09;5265681;28;20044;-79
2022/04/16 09:41:57;;;;;;;2.35;1.25;;;;;;;12.20;56.75;102582.22;5257211;28;20474;-78
2022/04/16 09:44:28;;;;;;;1.30;1.23;;;;;;;12.26;54.95;102584.84;5223090;28;20048;-78
2022/04/16 09:46:58;;;;;;;0.50;0.50;;;;;;;12.28;55.18;102576.94;5263745;28;20106;-77
2022/04/16 09:49:32;;;;;;;0.55;0.55;;;;;;;12.40;53.95;102582.13;5253238;28;20051;-77
2022/04/16 09:52:08;;;;;;;1.30;0.52;;;;;;;12.44;54.41;102577.72;5255449;28;20059;-78
2022/04/16 09:54:39;;;;;;;5.10;2.15;;;;;;;12.39;55.42;102580.41;5236250;28;20489;-78
2022/04/16 09:57:14;;;;;;;1.08;0.65;;;;;;;12.55;54.97;102581.19;5262459;28;20078;-77
2022/04/16 09:59:51;;;;;;;0.28;0.28;;;;;;;12.65;54.41;102575.88;5254423;28;20174;-78
2022/04/16 10:02:21;;;;;;;0.40;0.40;;;;;;;12.69;53.28;102578.47;5223821;28;20170;-78
2022/04/16 10:04:53;;;;;;;0.50;0.50;;;;;;;12.55;54.53;102570.66;5253337;28;20538;-78
2022/04/16 10:07:24;;;;;;;1.10;0.65;;;;;;;12.81;53.31;102580.16;5225928;28;20435;-79
2022/04/16 10:09:56;;;;;;;0.80;0.60;;;;;;;12.72;54.06;102577.56;5267830;28;20244;-80
2022/04/16 10:15:12;;;;;;;0.73;0.73;;;;;;;12.83;53.85;102577.50;5254453;28;20065;-79
2022/04/16 10:17:50;;;;;;;0.32;0.32;;;;;;;12.86;54.78;102572.22;5243265;28;20016;-79
2022/04/16 10:20:23;;;;;;;0.88;0.88;;;;;;;12.97;54.63;102567.75;5262909;28;20053;-78
2022/04/16 10:22:54;;;;;;;0.63;0.63;;;;;;;13.10;54.91;102557.97;5259330;28;20054;-77
2022/04/16 10:25:35;;;;;;;0.43;0.43;;;;;;;13.33;54.47;102564.81;5234893;28;20056;-78
2022/04/16 10:28:06;;;;;;;0.52;0.52;;;;;;;13.15;52.74;102561.44;5229853;28;20042;-79
2022/04/16 10:30:54;;;;;;;1.30;1.20;;;;;;;13.20;52.94;102561.41;5217386;28;20025;-79
2022/04/16 10:33:27;;;;;;;0.75;0.75;;;;;;;13.27;52.25;102567.47;5255315;28;20116;-78
2022/04/16 10:36:03;;;;;;;0.30;0.30;;;;;;;13.39;52.04;102559.50;5242148;28;20403;-78
2022/04/16 10:38:38;;;;;;;0.85;0.85;;;;;;;13.57;52.34;102570.78;5268677;28;20438;-77
2022/04/16 10:41:14;;;;;;;0.73;0.73;;;;;;;13.52;51.79;102566.41;5240695;28;20048;-79
2022/04/16 10:43:59;;;;;;;1.80;1.48;;;;;;;13.48;51.74;102563.81;5263551;28;20032;-78
2022/04/16 10:46:40;;;;;;;1.10;1.10;;;;;;;13.71;52.22;102562.72;5224080;28;20032;-79
2022/04/16 10:49:12;;;;;;;0.38;0.38;;;;;;;13.74;51.37;102566.19;5239722;28;20109;-78
2022/04/16 10:51:43;;;;;;;0.98;0.63;;;;;;;13.75;52.05;102565.31;5219637;28;20047;-78
2022/04/16 10:54:24;;;;;;;0.80;0.80;;;;;;;13.81;52.41;102562.59;5238092;28;20036;-78
2022/04/16 10:56:55;;;;;;;0.95;0.95;;;;;;;14.13;49.50;102563.13;5256295;28;20058;-78
2022/04/16 10:59:39;;;;;;;0.40;0.40;;;;;;;13.89;47.71;102565.13;5249556;28;20127;-77
2022/04/16 11:02:25;;;;;;;2.75;0.63;;;;;;;13.77;48.12;102558.22;5253313;28;20040;-78
2022/04/16 11:05:03;;;;;;;0.90;0.90;;;;;;;13.95;49.54;102556.28;5238493;28;20068;-78
2022/04/16 11:07:35;;;;;;;0.65;0.65;;;;;;;13.89;47.76;102544.03;5241694;28;20024;-79
2022/04/16 11:10:10;;;;;;;0.30;0.30;;;;;;;14.01;48.99;102548.28;5257054;28;20040;-78
2022/04/16 11:12:41;;;;;;;0.65;0.65;;;;;;;14.07;48.30;102545.59;5235627;28;20028;-78
2022/04/16 11:15:15;;;;;;;0.88;0.88;;;;;;;14.14;48.18;102543.72;5259098;28;20028;-76
2022/04/16 11:17:45;;;;;;;0.63;0.63;;;;;;;14.04;46.91;102542.97;5221962;28;20659;-77
2022/04/16 11:20:16;;;;;;;1.05;1.05;;;;;;;14.07;48.21;102550.88;5222479;28;20057;-78
2022/04/16 11:22:47;;;;;;;0.95;0.60;;;;;;;14.12;49.87;102538.47;5257723;28;20666;-78
2022/04/16 11:25:21;;;;;;;1.58;0.40;;;;;;;14.23;49.08;102538.31;5241231;28;20036;-78
2022/04/16 11:36:38;;;;;;;0.28;0.28;;;;;;;14.44;49.49;102516.03;5245662;28;20036;-77
2022/04/16 11:39:23;;;;;;;0.70;0.68;;;;;;;14.50;48.02;102524.78;5242289;28;20040;-78
2022/04/16 11:41:56;;;;;;;1.10;1.10;;;;;;;14.60;46.74;102523.72;5255898;28;20028;-75
2022/04/16 11:45:02;;;;;;;0.30;0.30;;;;;;;14.73;47.21;102519.16;5263520;28;20074;-77
2022/04/16 11:47:36;;;;;;;0.80;0.80;;;;;;;14.77;46.16;102527.00;5253373;28;20032;-77
2022/04/16 11:50:10;;;;;;;0.40;0.40;;;;;;;14.60;45.64;102529.00;5236894;28;20041;-77
2022/04/16 11:52:50;;;;;;;0.60;0.60;;;;;;;14.60;47.03;102526.34;5226458;28;20430;-78
2022/04/16 11:55:21;;;;;;;0.75;0.75;;;;;;;14.70;45.54;102528.00;5213697;28;20032;-77
2022/04/16 11:57:54;;;;;;;0.47;0.47;;;;;;;14.81;46.32;102514.63;5260156;28;20039;-77
2022/04/16 12:00:26;;;;;;;0.68;0.68;;;;;;;14.86;46.88;102506.63;5271147;28;20269;-76
2022/04/16 12:02:56;;;;;;;1.25;1.15;;;;;;;14.90;45.72;102511.81;5247650;28;20060;-77
2022/04/16 12:05:29;;;;;;;0.30;0.30;;;;;;;15.09;45.02;102515.03;5277024;28;20331;-77
2022/04/16 12:07:59;;;;;;;0.50;0.50;;;;;;;15.06;45.83;102512.44;5253162;28;20052;-77
2022/04/16 12:10:30;;;;;;;0.50;0.50;;;;;;;15.25;42.31;102509.47;5236622;28;20043;-78
2022/04/16 12:13:09;;;;;;;0.45;0.45;;;;;;;15.50;42.36;102503.72;5234595;28;20101;-76
2022/04/16 12:15:42;;;;;;;2.00;1.20;;;;;;;15.52;42.17;102513.38;5256605;28;20028;-75